Time;durP1;ratioP1;P1;durP2;ratioP2;P2;SDS_P1;SDS_P2;PMS_P1;PMS_P2;Temp;Humidity;BMP_temperature;BMP_pressure;BME280_temperature;BME280_humidity;BME280_pressure;Samples;Min_cycle;Max_cycle;Signal;HPM_P1;HPM_P2
2021/12/24 00:01:51;;;;;;;4.93;4.20;;;8.20;56.20;;;;;;4961436;28;20831;-82
2021/12/24 00:04:17;;;;;;;3.60;3.30;;;8.20;56.20;;;;;;4962002;28;20477;-83
2021/12/24 00:06:43;;;;;;;3.50;3.20;;;8.10;56.20;;;;;;4962056;28;20446;-82
2021/12/24 00:09:09;;;;;;;3.83;2.93;;;8.10;56.50;;;;;;4959449;28;20812;-82
2021/12/24 00:11:36;;;;;;;3.40;3.10;;;8.00;56.50;;;;;;4961523;28;20454;-82
2021/12/24 00:14:05;;;;;;;5.40;4.90;;;8.00;56.90;;;;;;4959978;28;20226;-82
2021/12/24 00:16:44;;;;;;;5.30;4.67;;;7.90;57.10;;;;;;4961156;28;20812;-82
2021/12/24 00:35:35;;;;;;;6.90;5.20;;;7.90;57.40;;;;;;4962050;28;20660;-83
2021/12/24 00:38:06;;;;;;;6.43;4.33;;;7.90;57.70;;;;;;4962475;28;20507;-82
2021/12/24 00:40:42;;;;;;;4.90;4.20;;;7.90;57.60;;;;;;4960556;28;20444;-82
2021/12/24 00:43:07;;;;;;;5.57;5.07;;;7.80;57.50;;;;;;4958329;28;20453;-82
2021/12/24 00:45:37;;;;;;;5.20;4.43;;;7.80;57.70;;;;;;4963459;28;20473;-81
2021/12/24 00:48:04;;;;;;;4.60;4.20;;;7.80;58.00;;;;;;4959215;28;20821;-83
2021/12/24 00:50:52;;;;;;;6.20;4.90;;;7.80;58.00;;;;;;4960996;28;20465;-82
2021/12/24 00:56:09;;;;;;;6.17;5.20;;;7.80;58.00;;;;;;4961378;28;20871;-82
2021/12/24 00:58:36;;;;;;;6.70;5.90;;;7.80;58.50;;;;;;4958258;28;20477;-82
2021/12/24 01:01:06;;;;;;;9.20;4.47;;;7.80;58.50;;;;;;4960406;28;20462;-82
2021/12/24 01:03:32;;;;;;;6.53;3.60;;;7.70;58.40;;;;;;4957444;28;20503;-82
2021/12/24 01:05:58;;;;;;;4.20;3.80;;;7.80;58.70;;;;;;4960500;28;20493;-82
2021/12/24 01:08:24;;;;;;;4.57;3.87;;;7.80;58.50;;;;;;4959742;28;22183;-81
2021/12/24 01:10:54;;;;;;;6.43;4.07;;;7.70;58.40;;;;;;4961056;28;20237;-82
2021/12/24 01:13:20;;;;;;;6.20;4.30;;;7.70;58.80;;;;;;4958156;28;20321;-82
2021/12/24 01:16:03;;;;;;;6.37;5.67;;;7.70;59.30;;;;;;4960792;28;20540;-81
2021/12/24 01:18:47;;;;;;;3.80;3.30;;;7.70;59.00;;;;;;4958727;28;20258;-83
2021/12/24 01:23:51;;;;;;;5.33;3.93;;;7.80;59.00;;;;;;4963578;28;20586;-83
2021/12/24 01:26:24;;;;;;;3.97;3.13;;;7.70;59.10;;;;;;4958295;28;20474;-84
2021/12/24 01:40:18;;;;;;;3.90;3.60;;;7.90;58.70;;;;;;4960323;28;20456;-84
2021/12/24 01:42:43;;;;;;;4.27;2.93;;;7.90;58.60;;;;;;4960197;28;20452;-84
2021/12/24 01:45:36;;;;;;;3.13;2.83;;;7.90;58.10;;;;;;4960196;28;20474;-83
2021/12/24 01:48:07;;;;;;;3.17;2.87;;;8.00;58.20;;;;;;4958673;28;20468;-84
2021/12/24 01:50:35;;;;;;;2.83;2.63;;;8.00;58.10;;;;;;4959357;28;20462;-83
2021/12/24 01:53:04;;;;;;;4.77;3.33;;;8.00;57.90;;;;;;4959120;28;20525;-82
2021/12/24 01:55:30;;;;;;;5.10;3.60;;;8.00;58.00;;;;;;4958592;28;20471;-82
2021/12/24 01:57:56;;;;;;;3.60;3.30;;;8.00;58.10;;;;;;4959402;28;20458;-83
2021/12/24 02:00:26;;;;;;;3.87;3.27;;;8.00;57.80;;;;;;4957920;28;20462;-82
2021/12/24 02:02:52;;;;;;;3.43;2.40;;;8.00;58.00;;;;;;4956885;28;20509;-84
2021/12/24 02:06:01;;;;;;;2.97;2.67;;;8.00;57.70;;;;;;4961866;28;20458;-82
2021/12/24 02:08:27;;;;;;;2.30;2.10;;;8.10;57.70;;;;;;4960000;28;20490;-83
2021/12/24 02:10:53;;;;;;;5.43;3.50;;;8.10;57.60;;;;;;4959615;28;20981;-82
2021/12/24 02:13:18;;;;;;;2.57;2.37;;;8.10;57.30;;;;;;4961646;28;20261;-84
2021/12/24 02:16:04;;;;;;;3.33;3.03;;;8.10;57.30;;;;;;4957475;28;20238;-83
2021/12/24 02:28:14;;;;;;;3.13;2.60;;;8.20;57.30;;;;;;4957381;28;20633;-83
2021/12/24 02:29:32;;;;;;;2.47;2.27;;;8.10;57.00;;;;;;4961883;28;20570;-83
2021/12/24 02:31:58;;;;;;;4.40;3.00;;;8.20;57.10;;;;;;4960941;28;20486;-82
2021/12/24 02:34:23;;;;;;;3.40;2.70;;;8.20;57.00;;;;;;4956320;28;20317;-81
2021/12/24 02:36:49;;;;;;;3.40;3.10;;;8.20;56.90;;;;;;4957386;28;20582;-83
2021/12/24 02:39:16;;;;;;;4.40;3.70;;;8.10;56.90;;;;;;4975011;28;20226;-82
2021/12/24 02:41:41;;;;;;;4.83;3.83;;;8.10;57.00;;;;;;4957221;28;20295;-82
2021/12/24 02:44:07;;;;;;;4.77;3.50;;;8.10;57.30;;;;;;4957464;28;20474;-82
2021/12/24 02:46:53;;;;;;;4.00;2.30;;;8.00;57.20;;;;;;4959014;28;20222;-84
2021/12/24 02:53:55;;;;;;;2.83;2.63;;;8.10;57.30;;;;;;4956849;28;20458;-83
2021/12/24 02:54:48;;;;;;;2.50;2.20;;;8.00;57.60;;;;;;4956806;28;20229;-83
2021/12/24 02:57:16;;;;;;;3.33;2.80;;;8.00;57.50;;;;;;4958580;28;20450;-83
2021/12/24 02:59:57;;;;;;;3.17;2.53;;;8.00;57.60;;;;;;4956987;28;20230;-82
2021/12/24 03:02:23;;;;;;;4.10;2.90;;;8.00;57.60;;;;;;4958284;28;20449;-82
2021/12/24 03:04:49;;;;;;;5.30;2.57;;;8.00;57.90;;;;;;4959609;28;20468;-82
2021/12/24 03:07:15;;;;;;;3.60;2.30;;;7.90;57.80;;;;;;4956417;28;20450;-82
2021/12/24 03:09:40;;;;;;;3.10;2.50;;;7.90;57.80;;;;;;4958157;28;20252;-82
2021/12/24 03:12:07;;;;;;;3.50;3.20;;;8.00;57.90;;;;;;4958683;28;20237;-82
2021/12/24 03:14:32;;;;;;;4.43;3.20;;;8.00;58.50;;;;;;4961679;28;20239;-81
2021/12/24 03:17:01;;;;;;;3.27;3.00;;;8.10;58.00;;;;;;4957002;28;20954;-82
2021/12/24 03:19:28;;;;;;;3.50;3.20;;;8.10;57.40;;;;;;4962322;28;20229;-83
2021/12/24 03:24:43;;;;;;;3.20;2.50;;;8.00;57.30;;;;;;4938389;28;20469;-82
2021/12/24 03:27:09;;;;;;;4.10;3.10;;;8.00;57.50;;;;;;4937509;28;20455;-82
2021/12/24 03:29:35;;;;;;;4.00;3.13;;;8.00;57.50;;;;;;4944974;28;20241;-81
2021/12/24 03:32:04;;;;;;;3.17;2.97;;;8.00;57.70;;;;;;4956684;28;20969;-81
2021/12/24 03:34:30;;;;;;;3.63;3.30;;;8.00;57.70;;;;;;4956350;28;20450;-83
2021/12/24 03:36:56;;;;;;;3.13;2.93;;;7.90;57.70;;;;;;4959805;28;20580;-82
2021/12/24 03:39:22;;;;;;;3.00;2.47;;;7.90;58.30;;;;;;4957443;28;20465;-81
2021/12/24 03:41:48;;;;;;;2.53;2.33;;;7.90;57.50;;;;;;4956249;28;20556;-82
2021/12/24 03:44:15;;;;;;;3.83;2.73;;;7.90;57.60;;;;;;4963970;28;20230;-83
2021/12/24 03:49:16;;;;;;;3.93;2.30;;;7.90;57.80;;;;;;4961392;28;20877;-83
2021/12/24 03:51:54;;;;;;;2.73;2.53;;;7.80;58.00;;;;;;4959143;28;20668;-84
2021/12/24 03:57:04;;;;;;;5.20;3.07;;;7.80;58.20;;;;;;4960739;28;20456;-83
2021/12/24 03:59:30;;;;;;;3.90;3.50;;;7.80;58.40;;;;;;4961522;28;20453;-81
2021/12/24 04:01:56;;;;;;;4.27;3.10;;;7.80;58.60;;;;;;4958982;28;20238;-83
2021/12/24 04:04:21;;;;;;;4.10;3.70;;;7.80;58.80;;;;;;4960317;28;20325;-83
2021/12/24 04:06:48;;;;;;;3.70;3.30;;;7.80;58.70;;;;;;4961277;28;20601;-84
2021/12/24 04:09:14;;;;;;;4.00;3.70;;;7.80;59.00;;;;;;4961458;28;20245;-83
2021/12/24 04:11:40;;;;;;;3.80;3.50;;;7.80;59.10;;;;;;4959490;28;20485;-83
2021/12/24 04:14:06;;;;;;;3.37;3.07;;;7.90;59.10;;;;;;4961399;28;20469;-82
2021/12/24 04:16:32;;;;;;;3.53;3.23;;;8.00;59.10;;;;;;4961417;28;20813;-83
2021/12/24 04:26:52;;;;;;;4.13;2.90;;;8.20;59.40;;;;;;4961032;28;20518;-83
2021/12/24 04:29:18;;;;;;;2.87;2.57;;;8.20;59.10;;;;;;4959598;28;20818;-84
2021/12/24 04:31:51;;;;;;;2.47;2.27;;;8.20;59.10;;;;;;4962707;28;20223;-84
2021/12/24 04:34:24;;;;;;;3.87;3.47;;;8.30;59.00;;;;;;4960836;28;20691;-85
2021/12/24 05:01:38;;;;;;;5.87;3.43;;;8.40;58.50;;;;;;4943260;28;20451;-87
2021/12/24 05:04:03;;;;;;;3.33;3.03;;;8.40;58.50;;;;;;4964415;28;20450;-88
2021/12/24 05:06:35;;;;;;;2.53;2.33;;;8.40;58.30;;;;;;4964661;28;20454;-89
2021/12/24 05:09:08;;;;;;;3.37;2.50;;;8.40;58.20;;;;;;4965283;28;20438;-88
2021/12/24 05:11:33;;;;;;;2.97;2.50;;;8.40;58.10;;;;;;4966564;28;20591;-88
2021/12/24 05:13:59;;;;;;;2.30;2.10;;;8.40;57.80;;;;;;4963532;28;20816;-90
2021/12/24 05:16:37;;;;;;;3.50;3.03;;;8.40;58.00;;;;;;4964260;28;20226;-89
2021/12/24 05:21:47;;;;;;;2.70;2.50;;;8.50;57.50;;;;;;4963398;28;21401;-85
2021/12/24 05:24:16;;;;;;;2.83;2.33;;;8.50;57.40;;;;;;4968662;28;20470;-87
2021/12/24 05:26:55;;;;;;;3.00;2.30;;;8.50;57.40;;;;;;4982569;28;20481;-89
2021/12/24 05:29:21;;;;;;;3.00;2.70;;;8.40;57.30;;;;;;4970861;28;20450;-88
2021/12/24 05:31:47;;;;;;;2.87;2.00;;;8.40;57.10;;;;;;4971799;28;20716;-86
2021/12/24 05:34:17;;;;;;;2.30;2.10;;;8.50;57.70;;;;;;4965571;28;20516;-88
2021/12/24 05:36:43;;;;;;;2.83;2.53;;;8.50;57.00;;;;;;4963892;28;20872;-88
2021/12/24 05:39:10;;;;;;;3.80;3.50;;;8.40;56.90;;;;;;4962797;28;20450;-86
2021/12/24 05:41:36;;;;;;;3.23;2.90;;;8.40;57.10;;;;;;4967167;28;20465;-89
2021/12/24 05:44:03;;;;;;;2.93;2.57;;;8.40;57.10;;;;;;4966801;28;20453;-88
2021/12/24 05:46:29;;;;;;;2.40;2.20;;;8.40;57.20;;;;;;4973558;28;20450;-88
2021/12/24 05:48:55;;;;;;;5.70;3.23;;;8.30;57.40;;;;;;4972834;28;20462;-88
2021/12/24 05:51:20;;;;;;;4.63;3.17;;;8.30;57.50;;;;;;4961820;28;20226;-86
2021/12/24 05:53:47;;;;;;;2.63;2.43;;;8.30;57.50;;;;;;4957763;28;20226;-89
2021/12/24 05:56:13;;;;;;;3.97;3.67;;;8.30;57.70;;;;;;4959946;28;20222;-88
2021/12/24 05:58:39;;;;;;;3.40;3.20;;;8.30;57.60;;;;;;4957754;28;21994;-86
2021/12/24 06:01:04;;;;;;;3.47;2.83;;;8.30;57.60;;;;;;4959920;28;20314;-85
2021/12/24 06:03:30;;;;;;;2.90;2.60;;;8.30;58.00;;;;;;4954662;28;20308;-86
2021/12/24 06:05:56;;;;;;;3.10;2.83;;;8.40;57.90;;;;;;4939307;28;20669;-88
2021/12/24 06:08:21;;;;;;;4.07;2.80;;;8.40;57.90;;;;;;4938901;28;21399;-87
2021/12/24 06:10:47;;;;;;;3.10;2.63;;;8.40;57.80;;;;;;4941043;28;20227;-87
2021/12/24 06:13:13;;;;;;;4.03;3.60;;;8.40;57.90;;;;;;4938737;28;20238;-85
2021/12/24 06:15:44;;;;;;;3.37;2.80;;;8.40;58.00;;;;;;4942317;28;20766;-85
2021/12/24 06:18:19;;;;;;;3.03;2.60;;;8.30;57.90;;;;;;4942360;28;20191;-88
2021/12/24 06:20:45;;;;;;;3.77;3.47;;;8.30;58.40;;;;;;4939436;28;20517;-89
2021/12/24 06:23:10;;;;;;;3.70;3.40;;;8.30;58.70;;;;;;4940529;28;20451;-89
2021/12/24 06:25:36;;;;;;;2.97;2.67;;;8.50;59.30;;;;;;4939189;28;20703;-89
2021/12/24 06:28:03;;;;;;;2.93;2.67;;;8.60;59.10;;;;;;4938673;28;20598;-89
2021/12/24 06:30:29;;;;;;;2.70;2.50;;;8.80;59.40;;;;;;4955221;28;21005;-89
2021/12/24 06:32:59;;;;;;;3.33;3.03;;;9.00;59.00;;;;;;4956701;28;20858;-88
2021/12/24 06:35:26;;;;;;;2.73;2.53;;;9.00;58.60;;;;;;4955866;28;20469;-89
2021/12/24 06:37:56;;;;;;;3.20;2.90;;;9.00;58.00;;;;;;4941124;28;20463;-90
2021/12/24 06:40:22;;;;;;;4.77;2.50;;;9.00;57.80;;;;;;4956237;28;20470;-88
2021/12/24 06:42:48;;;;;;;3.70;3.07;;;9.00;58.20;;;;;;4954526;28;20557;-89
2021/12/24 06:45:19;;;;;;;5.43;3.17;;;9.30;57.20;;;;;;4957648;28;20561;-88
2021/12/24 06:47:44;;;;;;;5.43;4.63;;;9.30;56.80;;;;;;4942949;28;20230;-86
2021/12/24 06:50:10;;;;;;;4.90;3.70;;;9.20;57.00;;;;;;4934438;28;20952;-85
2021/12/24 06:52:35;;;;;;;5.80;3.23;;;9.20;57.00;;;;;;4932478;28;20707;-86
2021/12/24 06:55:01;;;;;;;3.30;3.00;;;9.30;56.70;;;;;;4934193;28;20227;-88
2021/12/24 06:57:27;;;;;;;4.43;3.90;;;9.60;55.40;;;;;;4932567;28;20232;-85
2021/12/24 06:59:52;;;;;;;4.80;4.30;;;9.40;56.00;;;;;;4935277;28;20232;-87
2021/12/24 07:02:18;;;;;;;5.00;4.10;;;9.40;55.70;;;;;;4935142;28;20440;-87
2021/12/24 07:04:43;;;;;;;4.03;3.63;;;9.30;56.50;;;;;;4935650;28;20228;-87
2021/12/24 07:07:09;;;;;;;4.20;3.80;;;9.30;57.60;;;;;;4933251;28;20231;-87
2021/12/24 07:09:41;;;;;;;6.00;2.80;;;9.40;58.10;;;;;;4936553;28;20288;-86
2021/12/24 07:12:11;;;;;;;3.40;2.90;;;9.30;58.70;;;;;;4940290;28;20967;-86
2021/12/24 07:14:38;;;;;;;4.03;3.40;;;9.20;59.50;;;;;;4917867;29;20510;-85
2021/12/24 07:17:04;;;;;;;4.47;4.07;;;9.20;59.40;;;;;;4935150;28;20459;-86
2021/12/24 07:19:30;;;;;;;4.13;3.83;;;9.10;59.70;;;;;;4936549;28;20456;-86
2021/12/24 07:21:55;;;;;;;4.63;3.43;;;9.00;59.60;;;;;;4926159;28;20463;-87
2021/12/24 07:24:24;;;;;;;4.50;4.10;;;8.90;60.20;;;;;;4925879;28;20235;-87
2021/12/24 07:26:49;;;;;;;4.07;3.67;;;8.90;60.40;;;;;;4941659;28;20223;-86
2021/12/24 07:29:16;;;;;;;7.83;3.33;;;9.00;61.10;;;;;;4938264;28;20452;-85
2021/12/24 07:31:42;;;;;;;3.13;2.93;;;8.80;61.80;;;;;;4940782;28;20362;-86
2021/12/24 07:34:08;;;;;;;3.93;3.53;;;8.80;62.80;;;;;;4942103;28;20535;-90
2021/12/24 07:36:34;;;;;;;3.30;3.00;;;8.80;63.50;;;;;;4943993;28;20710;-87
2021/12/24 07:39:00;;;;;;;4.40;3.90;;;8.90;64.00;;;;;;4941539;28;20274;-89
2021/12/24 07:41:26;;;;;;;4.60;4.10;;;8.90;63.50;;;;;;4945458;28;20451;-87
2021/12/24 07:43:52;;;;;;;3.53;2.90;;;8.90;64.30;;;;;;4940317;28;20335;-85
2021/12/24 07:46:20;;;;;;;3.47;3.17;;;8.90;64.20;;;;;;4936937;28;20536;-84
2021/12/24 07:48:49;;;;;;;4.97;4.40;;;8.90;64.30;;;;;;4937141;28;20867;-85
2021/12/24 07:54:02;;;;;;;3.37;3.07;;;9.00;63.60;;;;;;4940316;28;20488;-85
2021/12/24 07:56:29;;;;;;;4.27;2.97;;;9.20;61.90;;;;;;4940767;28;20451;-85
2021/12/24 07:58:56;;;;;;;3.07;2.70;;;9.00;62.10;;;;;;4939411;28;20450;-86
2021/12/24 08:01:27;;;;;;;6.17;3.90;;;9.00;62.70;;;;;;4947913;28;20502;-86
2021/12/24 08:03:54;;;;;;;4.50;3.30;;;9.00;62.60;;;;;;4964347;28;20514;-87
2021/12/24 08:06:20;;;;;;;5.13;3.00;;;9.00;62.60;;;;;;4955480;28;20548;-85
2021/12/24 08:08:46;;;;;;;4.33;2.67;;;8.90;63.00;;;;;;4939362;28;20462;-85
2021/12/24 08:11:12;;;;;;;3.43;3.10;;;8.90;62.30;;;;;;4941906;28;20442;-84
2021/12/24 08:13:37;;;;;;;4.33;3.60;;;9.10;61.00;;;;;;4939289;28;20234;-86
2021/12/24 08:16:03;;;;;;;4.53;4.13;;;9.10;62.00;;;;;;4941797;28;20447;-84
2021/12/24 08:18:29;;;;;;;3.77;3.03;;;9.00;61.10;;;;;;4938516;28;20234;-85
2021/12/24 08:20:55;;;;;;;3.13;2.83;;;9.10;61.20;;;;;;4941121;28;20442;-84
2021/12/24 08:23:21;;;;;;;3.43;3.13;;;9.00;61.10;;;;;;4939382;28;20687;-85
2021/12/24 08:25:46;;;;;;;3.63;3.33;;;9.00;61.10;;;;;;4940012;28;20235;-84
2021/12/24 08:28:12;;;;;;;4.00;2.90;;;9.10;61.20;;;;;;4941301;28;20321;-85
2021/12/24 08:30:38;;;;;;;4.80;4.17;;;9.00;61.10;;;;;;4937786;28;20687;-85
2021/12/24 08:33:04;;;;;;;4.87;3.97;;;9.00;61.10;;;;;;4943408;28;20597;-85
2021/12/24 08:35:30;;;;;;;4.53;4.13;;;9.10;61.20;;;;;;4941179;28;20241;-86
2021/12/24 08:37:56;;;;;;;5.10;4.20;;;9.10;60.20;;;;;;4942730;28;20463;-87
2021/12/24 08:40:22;;;;;;;4.30;3.70;;;9.10;60.80;;;;;;4939666;28;20419;-86
2021/12/24 08:42:48;;;;;;;4.00;3.60;;;9.10;60.10;;;;;;4943263;28;20982;-86
2021/12/24 08:45:14;;;;;;;5.53;3.70;;;9.10;60.60;;;;;;4940655;28;20231;-85
2021/12/24 08:47:40;;;;;;;3.27;2.97;;;9.20;60.70;;;;;;4942169;28;20711;-86
2021/12/24 08:50:08;;;;;;;4.50;4.10;;;9.20;60.50;;;;;;4943253;28;20223;-86
2021/12/24 08:52:33;;;;;;;4.43;3.63;;;9.20;60.60;;;;;;4945632;28;20469;-88
2021/12/24 08:54:59;;;;;;;5.07;3.70;;;9.20;60.90;;;;;;4942750;28;20454;-88
2021/12/24 08:57:25;;;;;;;4.23;3.93;;;9.20;60.00;;;;;;4940473;28;20314;-89
2021/12/24 08:59:51;;;;;;;6.77;5.53;;;9.10;60.60;;;;;;4940768;28;20313;-87
2021/12/24 09:02:17;;;;;;;4.40;4.00;;;9.30;60.60;;;;;;4938436;28;20234;-85
2021/12/24 09:04:43;;;;;;;2.63;2.33;;;9.20;60.60;;;;;;4941069;28;20227;-86
2021/12/24 09:07:10;;;;;;;3.60;2.70;;;9.20;61.30;;;;;;4937676;28;20502;-85
2021/12/24 09:09:36;;;;;;;5.50;3.07;;;9.20;62.90;;;;;;4939935;28;20222;-87
2021/12/24 09:12:02;;;;;;;3.23;2.93;;;9.20;62.80;;;;;;4937453;28;20517;-85
2021/12/24 09:14:27;;;;;;;3.90;3.50;;;9.20;62.20;;;;;;4938688;28;20615;-84
2021/12/24 09:16:54;;;;;;;4.17;3.40;;;9.20;62.80;;;;;;4936659;28;20461;-86
2021/12/24 09:19:24;;;;;;;5.23;3.30;;;9.20;62.80;;;;;;4940430;28;20231;-86
2021/12/24 09:21:50;;;;;;;3.17;2.63;;;9.20;62.50;;;;;;4937869;28;20463;-86
2021/12/24 09:24:18;;;;;;;3.10;2.80;;;9.10;63.10;;;;;;4939148;28;20459;-87
2021/12/24 09:26:45;;;;;;;3.80;3.40;;;9.10;62.40;;;;;;4938133;28;20462;-86
2021/12/24 09:29:11;;;;;;;3.27;2.97;;;9.10;63.40;;;;;;4937275;28;20807;-84
2021/12/24 09:31:37;;;;;;;3.27;2.80;;;9.10;63.70;;;;;;4938921;28;20454;-85
2021/12/24 09:34:03;;;;;;;3.23;2.93;;;9.10;64.60;;;;;;4937237;28;20455;-85
2021/12/24 09:36:29;;;;;;;3.20;2.90;;;9.00;65.00;;;;;;4932234;28;20454;-84
2021/12/24 09:38:58;;;;;;;4.57;4.10;;;9.00;65.90;;;;;;4936816;28;20809;-86
2021/12/24 09:41:24;;;;;;;2.90;2.70;;;9.00;65.90;;;;;;4939209;28;20570;-87
2021/12/24 09:43:51;;;;;;;4.40;3.50;;;9.00;66.50;;;;;;4936499;28;20453;-86
2021/12/24 09:46:18;;;;;;;4.33;3.47;;;9.10;66.30;;;;;;4938216;28;20475;-84
2021/12/24 09:48:44;;;;;;;2.83;2.50;;;9.00;66.70;;;;;;4936467;28;20545;-85
2021/12/24 09:51:10;;;;;;;2.57;2.40;;;8.90;67.70;;;;;;4942652;28;20467;-85
2021/12/24 09:53:36;;;;;;;3.33;3.03;;;8.90;67.50;;;;;;4942894;28;20451;-86
2021/12/24 09:56:04;;;;;;;3.60;3.30;;;8.90;67.50;;;;;;4942191;28;20461;-85
2021/12/24 09:58:30;;;;;;;3.57;2.87;;;8.90;68.40;;;;;;4925739;28;20227;-85
2021/12/24 10:00:56;;;;;;;4.30;2.90;;;8.90;69.30;;;;;;4936647;28;20475;-87
2021/12/24 10:03:37;;;;;;;3.40;3.10;;;8.90;68.70;;;;;;4923621;28;20466;-83
2021/12/24 10:06:07;;;;;;;3.87;3.50;;;8.90;69.00;;;;;;4937897;28;20689;-84
2021/12/24 10:08:33;;;;;;;4.53;4.13;;;8.90;68.80;;;;;;4923459;28;20452;-87
2021/12/24 10:11:10;;;;;;;5.27;3.90;;;8.90;69.10;;;;;;4934771;28;20591;-86
2021/12/24 10:13:46;;;;;;;3.40;3.07;;;8.90;69.20;;;;;;4940703;28;20231;-85
2021/12/24 10:16:22;;;;;;;5.53;2.90;;;8.90;69.30;;;;;;4936922;28;20546;-83
2021/12/24 10:18:54;;;;;;;4.13;3.07;;;8.90;69.30;;;;;;4921171;29;20447;-87
2021/12/24 10:21:32;;;;;;;3.47;3.17;;;8.90;69.00;;;;;;4940662;28;20543;-85
2021/12/24 10:24:00;;;;;;;15.23;12.57;;;8.90;69.10;;;;;;4940518;28;20448;-85
2021/12/24 10:26:29;;;;;;;4.93;3.50;;;9.00;69.60;;;;;;4936548;28;20451;-85
2021/12/24 10:29:19;;;;;;;4.23;3.90;;;9.00;69.30;;;;;;4923934;29;20448;-85
2021/12/24 10:31:48;;;;;;;4.77;3.20;;;9.00;69.80;;;;;;4917349;28;20480;-85
2021/12/24 10:34:41;;;;;;;3.37;3.07;;;9.00;69.00;;;;;;4938069;28;20498;-87
2021/12/24 10:37:15;;;;;;;4.90;2.30;;;9.00;68.70;;;;;;4903700;29;20445;-87
2021/12/24 10:39:55;;;;;;;5.57;3.50;;;9.00;69.30;;;;;;4938216;28;20451;-86
2021/12/24 10:42:27;;;;;;;4.90;4.50;;;9.00;69.30;;;;;;4939142;28;20449;-84
2021/12/24 10:44:55;;;;;;;3.53;3.13;;;9.00;68.70;;;;;;4941348;28;20483;-86
2021/12/24 10:47:23;;;;;;;3.57;3.23;;;9.00;68.90;;;;;;4929766;28;20455;-84
2021/12/24 10:50:09;;;;;;;3.77;3.10;;;8.90;68.90;;;;;;4936599;28;20470;-85
2021/12/24 10:55:18;;;;;;;4.20;3.90;;;9.00;68.60;;;;;;4922256;28;20796;-86
2021/12/24 10:57:46;;;;;;;5.73;4.27;;;9.10;71.40;;;;;;4941244;28;20455;-83
2021/12/24 11:00:38;;;;;;;3.07;2.83;;;9.30;68.30;;;;;;4945470;28;20465;-88
2021/12/24 11:03:14;;;;;;;5.53;4.70;;;9.10;69.20;;;;;;4944961;28;20972;-86
2021/12/24 11:05:44;;;;;;;3.70;3.40;;;9.10;67.90;;;;;;4941075;28;20470;-88
2021/12/24 11:08:17;;;;;;;4.43;3.53;;;9.10;68.20;;;;;;4930252;28;20451;-88
2021/12/24 11:10:49;;;;;;;3.07;2.67;;;9.10;67.70;;;;;;4945643;28;20451;-89
2021/12/24 11:13:18;;;;;;;68.13;31.47;;;9.10;67.70;;;;;;4946449;28;20547;-89
2021/12/24 11:15:50;;;;;;;5.63;4.23;;;9.30;70.00;;;;;;4947392;28;20494;-87
2021/12/24 11:18:18;;;;;;;5.80;3.83;;;9.40;67.30;;;;;;4941993;28;20955;-89
2021/12/24 11:20:49;;;;;;;15.23;7.53;;;9.20;67.30;;;;;;4935311;29;20467;-88
2021/12/24 11:23:17;;;;;;;5.17;2.70;;;9.30;67.60;;;;;;4937914;28;20463;-88
2021/12/24 11:25:46;;;;;;;7.60;3.90;;;9.20;66.80;;;;;;4951142;29;20522;-86
2021/12/24 11:28:13;;;;;;;2.50;2.30;;;9.30;66.80;;;;;;4966114;28;20459;-87
2021/12/24 11:30:43;;;;;;;5.20;3.50;;;9.30;66.50;;;;;;4953673;28;20447;-88
2021/12/24 11:33:15;;;;;;;4.07;2.97;;;9.30;66.60;;;;;;4948257;28;20526;-87
2021/12/24 11:35:41;;;;;;;6.30;2.77;;;9.20;66.70;;;;;;4947957;28;20447;-88
2021/12/24 11:38:07;;;;;;;2.90;2.30;;;9.20;67.40;;;;;;4949104;28;20447;-88
2021/12/24 11:40:33;;;;;;;2.37;1.87;;;9.20;67.70;;;;;;4948192;28;20459;-87
2021/12/24 11:43:03;;;;;;;2.37;2.17;;;9.30;67.10;;;;;;4947100;28;21010;-87
2021/12/24 11:45:32;;;;;;;2.93;2.70;;;9.20;67.30;;;;;;4943623;28;20984;-84
2021/12/24 11:47:59;;;;;;;2.13;1.97;;;9.20;66.90;;;;;;4941524;28;20466;-86
2021/12/24 11:50:26;;;;;;;7.57;3.57;;;9.30;67.40;;;;;;4942394;28;20510;-85
2021/12/24 11:52:56;;;;;;;2.87;2.57;;;9.30;69.40;;;;;;4941435;28;20550;-86
2021/12/24 11:55:24;;;;;;;3.40;2.93;;;9.30;66.70;;;;;;4946687;28;20466;-89
2021/12/24 11:57:59;;;;;;;4.37;3.97;;;9.40;66.90;;;;;;4942276;28;20463;-86
2021/12/24 12:00:37;;;;;;;3.13;2.83;;;9.40;67.00;;;;;;4943075;28;20936;-82
2021/12/24 12:03:03;;;;;;;6.13;3.50;;;9.40;67.50;;;;;;4944006;28;20598;-84
2021/12/24 12:05:36;;;;;;;1.50;1.40;;;9.50;67.20;;;;;;4939630;28;20482;-85
2021/12/24 12:08:27;;;;;;;2.97;2.27;;;9.40;66.60;;;;;;4945051;28;20713;-86
2021/12/24 12:10:54;;;;;;;1.87;1.73;;;9.40;66.80;;;;;;4943770;28;20449;-85
2021/12/24 12:16:50;;;;;;;1.63;1.40;;;9.40;69.40;;;;;;4962998;28;20430;-94
2021/12/24 12:19:28;;;;;;;2.10;1.70;;;9.60;65.90;;;;;;4961073;29;20419;-95
2021/12/24 12:22:44;;;;;;;2.80;1.83;;;9.60;66.50;;;;;;4963111;29;20419;-96
2021/12/24 12:25:33;;;;;;;2.00;1.90;;;9.60;67.10;;;;;;4950814;28;20466;-88
2021/12/24 12:28:05;;;;;;;2.53;2.30;;;9.80;66.90;;;;;;4941602;28;20502;-85
2021/12/24 12:30:36;;;;;;;2.30;1.80;;;9.70;66.10;;;;;;4944898;28;20455;-86
2021/12/24 12:33:13;;;;;;;2.63;1.90;;;9.80;65.00;;;;;;4940538;28;20822;-85
2021/12/24 12:35:55;;;;;;;1.97;1.77;;;9.70;65.70;;;;;;4944607;28;20431;-83
2021/12/24 12:38:44;;;;;;;2.80;1.83;;;9.70;66.10;;;;;;4934496;28;21229;-86
2021/12/24 12:41:37;;;;;;;1.57;1.37;;;9.90;64.70;;;;;;4902621;29;20341;-85
2021/12/24 12:44:10;;;;;;;2.30;2.20;;;9.80;64.30;;;;;;4918403;29;20457;-87
2021/12/24 12:46:46;;;;;;;2.07;1.70;;;9.80;66.50;;;;;;4908493;28;20542;-85
2021/12/24 12:49:33;;;;;;;2.60;1.47;;;9.70;65.20;;;;;;4926036;28;20440;-86
2021/12/24 12:52:07;;;;;;;1.80;1.60;;;9.70;65.70;;;;;;4927677;29;20864;-85
2021/12/24 12:54:34;;;;;;;1.43;1.33;;;9.80;66.90;;;;;;4927545;29;20557;-84
2021/12/24 12:57:21;;;;;;;2.10;1.30;;;9.80;65.90;;;;;;4926041;29;20451;-87
2021/12/24 13:00:10;;;;;;;1.47;1.37;;;9.70;66.50;;;;;;4928085;29;20452;-87
2021/12/24 13:02:56;;;;;;;2.37;1.70;;;9.70;66.80;;;;;;4926497;29;20443;-83
2021/12/24 13:05:26;;;;;;;1.73;1.63;;;9.80;66.80;;;;;;4918930;29;20566;-84
2021/12/24 13:07:59;;;;;;;1.47;1.10;;;10.20;65.10;;;;;;4924643;29;20483;-85
2021/12/24 13:10:26;;;;;;;2.00;1.47;;;10.00;64.30;;;;;;4925457;28;20965;-88
2021/12/24 13:13:00;;;;;;;2.00;1.50;;;9.80;64.80;;;;;;4925159;28;20487;-84
2021/12/24 13:15:25;;;;;;;3.40;2.73;;;9.70;65.30;;;;;;4926917;29;20899;-83
2021/12/24 13:17:51;;;;;;;2.50;2.10;;;9.90;66.10;;;;;;4924474;28;20555;-81
2021/12/24 13:20:33;;;;;;;1.87;1.60;;;10.30;62.20;;;;;;4923016;28;20251;-83
2021/12/24 13:23:01;;;;;;;1.80;1.10;;;10.00;62.60;;;;;;4922980;28;20244;-82
2021/12/24 13:25:28;;;;;;;2.50;1.00;;;10.00;61.60;;;;;;4923977;28;20988;-84
2021/12/24 13:27:54;;;;;;;1.53;1.10;;;9.90;63.30;;;;;;4926626;28;20531;-82
2021/12/24 13:30:31;;;;;;;1.27;1.10;;;9.90;65.10;;;;;;4924353;28;20452;-82
2021/12/24 13:33:03;;;;;;;1.10;1.00;;;9.80;64.70;;;;;;4923734;29;20564;-83
2021/12/24 13:35:31;;;;;;;3.13;1.30;;;9.80;65.20;;;;;;4940335;28;20492;-82
2021/12/24 13:37:58;;;;;;;1.30;1.10;;;9.80;65.70;;;;;;4939274;28;20502;-82
2021/12/24 13:40:30;;;;;;;1.43;1.33;;;9.90;65.90;;;;;;4941283;28;20448;-82
2021/12/24 13:43:04;;;;;;;1.40;1.30;;;9.80;65.20;;;;;;4936885;28;20475;-83
2021/12/24 13:45:34;;;;;;;2.60;2.40;;;9.70;65.00;;;;;;4938378;28;20460;-84
2021/12/24 13:48:07;;;;;;;2.23;1.77;;;10.10;67.30;;;;;;4938624;28;20463;-83
2021/12/24 13:56:35;;;;;;;2.00;1.30;;;9.80;64.80;;;;;;4923667;28;22371;-82
2021/12/24 13:59:01;;;;;;;2.00;1.80;;;9.80;65.40;;;;;;4923277;28;20455;-82
2021/12/24 14:01:30;;;;;;;1.73;1.47;;;9.90;66.20;;;;;;4926214;28;20535;-83
2021/12/24 14:03:58;;;;;;;1.63;1.53;;;9.80;66.40;;;;;;4922293;29;20242;-82
2021/12/24 14:06:37;;;;;;;1.77;1.23;;;9.70;67.40;;;;;;4938378;28;20551;-83
2021/12/24 14:09:19;;;;;;;1.13;1.03;;;9.80;70.70;;;;;;4938219;28;20462;-83
2021/12/24 14:11:48;;;;;;;4.83;2.33;;;9.70;68.20;;;;;;4938209;28;20462;-81
2021/12/24 14:14:23;;;;;;;2.20;1.90;;;9.90;67.30;;;;;;4939130;28;20486;-81
2021/12/24 14:19:48;;;;;;;2.97;1.87;;;9.90;65.70;;;;;;4933554;28;20467;-83
2021/12/24 14:22:17;;;;;;;1.43;1.23;;;9.80;67.60;;;;;;4958771;28;20503;-82
2021/12/24 14:25:00;;;;;;;1.43;1.33;;;9.90;75.70;;;;;;4941566;28;20478;-84
2021/12/24 14:27:28;;;;;;;2.20;1.33;;;10.20;62.60;;;;;;4941712;28;20457;-86
2021/12/24 14:30:02;;;;;;;2.97;2.17;;;10.00;63.80;;;;;;4952687;28;20509;-86
2021/12/24 14:32:38;;;;;;;2.63;2.43;;;9.90;65.80;;;;;;4962838;28;20446;-84
2021/12/24 14:35:21;;;;;;;1.60;1.50;;;9.90;65.90;;;;;;4956446;28;20447;-79
2021/12/24 14:37:55;;;;;;;1.57;1.47;;;9.80;65.80;;;;;;4970022;28;20442;-82
2021/12/24 14:40:21;;;;;;;2.90;2.70;;;9.90;65.30;;;;;;4959890;28;20450;-82
2021/12/24 14:42:52;;;;;;;2.00;1.90;;;9.90;65.40;;;;;;4962128;28;20997;-81
2021/12/24 14:45:26;;;;;;;2.20;2.00;;;9.90;65.40;;;;;;4954220;28;20456;-86
2021/12/24 14:48:03;;;;;;;1.63;1.53;;;9.90;65.60;;;;;;4942631;28;20463;-88
2021/12/24 14:50:34;;;;;;;1.00;0.90;;;9.80;65.00;;;;;;4942017;28;20549;-88
2021/12/24 14:53:14;;;;;;;3.47;1.40;;;9.80;65.20;;;;;;4943577;28;20489;-88
2021/12/24 14:55:50;;;;;;;1.20;1.10;;;9.70;65.30;;;;;;4942102;28;20488;-89
2021/12/24 14:58:45;;;;;;;0.90;0.90;;;9.70;65.60;;;;;;4942636;28;20473;-88